Fecha, hora, temperatura, viento dirección y velocidad, humedad y presión.

  • 16-01-2019 16:00:00 | 17.20°C | Sur |14.00 km/h | 59.00% | 1017.00 hPa
  • 16-01-2019 15:00:00 | 17.20°C | Sur |14.00 km/h | 57.00% | 1017.40 hPa
  • 16-01-2019 14:00:00 | 17.30°C | Sudeste |9.00 km/h | 56.00% | 1018.30 hPa
  • 16-01-2019 13:00:00 | 16.30°C | Oeste |11.00 km/h | 55.00% | 1019.10 hPa
  • 16-01-2019 12:00:00 | 14.70°C | Oeste |10.00 km/h | 71.00% | 1020.30 hPa
  • 16-01-2019 11:00:00 | 10.40°C | Noroeste |11.00 km/h | 85.00% | 1020.60 hPa
  • 16-01-2019 10:00:00 | 7.40°C | Noroeste |13.00 km/h | 92.00% | 1020.30 hPa
  • 16-01-2019 09:00:00 | 6.80°C | Oeste |15.00 km/h | 93.00% | 1019.90 hPa
  • 16-01-2019 08:00:00 | 8.20°C | Oeste |14.00 km/h | 91.00% | 1019.80 hPa
  • 16-01-2019 07:00:00 | 8.90°C | Oeste |13.00 km/h | 90.00% | 1019.50 hPa
  • 16-01-2019 06:00:00 | 8.50°C | Oeste |13.00 km/h | 94.00% | 1019.60 hPa
  • 16-01-2019 05:00:00 | 7.60°C | Oeste |13.00 km/h | 94.00% | 1019.90 hPa
  • 16-01-2019 04:00:00 | 7.70°C | Oeste |15.00 km/h | 93.00% | 1020.20 hPa
  • 16-01-2019 03:00:00 | 8.40°C | Oeste |14.00 km/h | 91.00% | 1020.50 hPa
  • 16-01-2019 02:00:00 | 8.70°C | Oeste |12.00 km/h | 90.00% | 1020.70 hPa
  • 16-01-2019 01:00:00 | 8.80°C | Noroeste |13.00 km/h | 89.00% | 1021.20 hPa
  • 16-01-2019 00:00:00 | 10.30°C | Oeste |14.00 km/h | 84.00% | 1021.40 hPa
  • 15-01-2019 23:00:00 | 10.40°C | Noroeste |7.00 km/h | 87.00% | 1021.20 hPa
  • 15-01-2019 22:00:00 | 10.60°C | Noroeste |5.00 km/h | 90.00% | 1020.90 hPa
  • 15-01-2019 21:00:00 | 10.70°C | Oeste |9.00 km/h | 88.00% | 1020.70 hPa
  • 15-01-2019 20:00:00 | 11.80°C | Calma |0.00 km/h | 87.00% | 1020.30 hPa
  • 15-01-2019 19:00:00 | 13.00°C | Calma |0.00 km/h | 81.00% | 1020.10 hPa
  • 15-01-2019 18:00:00 | 15.30°C | Este |3.00 km/h | 74.00% | 1019.80 hPa
  • 15-01-2019 17:00:00 | 16.00°C | Sudeste |7.00 km/h | 73.00% | 1019.70 hPa
    • diseño web asturias Información sobre el estado de las mareas, altura de la marejada, temperatura del agua y otros datos de Gijón en Asturias.

      Surf Gijón